sensor_id;sensor_type;location;lat;lon;timestamp;P1;P2;P0
70255;PMS5003;57669;52.624;-1.688;2023-01-23T00:02:08;47;43;
70255;PMS5003;57669;52.624;-1.688;2023-01-23T00:04:34;55;52;
70255;PMS5003;57669;52.624;-1.688;2023-01-23T00:06:59;49;47;
70255;PMS5003;57669;52.624;-1.688;2023-01-23T00:09:25;50;48;
70255;PMS5003;57669;52.624;-1.688;2023-01-23T00:11:51;51;47;
70255;PMS5003;57669;52.624;-1.688;2023-01-23T00:14:16;50;50;
70255;PMS5003;57669;52.624;-1.688;2023-01-23T00:16:41;46;45;
70255;PMS5003;57669;52.624;-1.688;2023-01-23T00:19:08;53;51;
70255;PMS5003;57669;52.624;-1.688;2023-01-23T00:21:33;52;50;
70255;PMS5003;57669;52.624;-1.688;2023-01-23T00:23:58;53;49;
70255;PMS5003;57669;52.624;-1.688;2023-01-23T00:26:27;51;48;
70255;PMS5003;57669;52.624;-1.688;2023-01-23T00:28:50;52;52;
70255;PMS5003;57669;52.624;-1.688;2023-01-23T00:31:15;57;54;
70255;PMS5003;57669;52.624;-1.688;2023-01-23T00:33:41;52;45;
70255;PMS5003;57669;52.624;-1.688;2023-01-23T00:36:06;52;48;
70255;PMS5003;57669;52.624;-1.688;2023-01-23T00:38:31;53;50;
70255;PMS5003;57669;52.624;-1.688;2023-01-23T00:40:56;58;55;
70255;PMS5003;57669;52.624;-1.688;2023-01-23T00:43:22;49;48;
70255;PMS5003;57669;52.624;-1.688;2023-01-23T00:45:48;46;44;
70255;PMS5003;57669;52.624;-1.688;2023-01-23T00:48:13;48;47;
70255;PMS5003;57669;52.624;-1.688;2023-01-23T00:50:38;56;51;
70255;PMS5003;57669;52.624;-1.688;2023-01-23T00:53:03;49;48;
70255;PMS5003;57669;52.624;-1.688;2023-01-23T00:55:29;58;55;
70255;PMS5003;57669;52.624;-1.688;2023-01-23T00:57:54;48;46;
70255;PMS5003;57669;52.624;-1.688;2023-01-23T01:00:20;56;54;
70255;PMS5003;57669;52.624;-1.688;2023-01-23T01:02:45;48;48;
70255;PMS5003;57669;52.624;-1.688;2023-01-23T01:05:11;49;46;
70255;PMS5003;57669;52.624;-1.688;2023-01-23T01:07:36;46;43;
70255;PMS5003;57669;52.624;-1.688;2023-01-23T01:10:02;54;48;
70255;PMS5003;57669;52.624;-1.688;2023-01-23T01:12:27;52;52;
70255;PMS5003;57669;52.624;-1.688;2023-01-23T01:14:52;48;46;
70255;PMS5003;57669;52.624;-1.688;2023-01-23T01:17:17;48;47;
70255;PMS5003;57669;52.624;-1.688;2023-01-23T01:19:42;46;42;
70255;PMS5003;57669;52.624;-1.688;2023-01-23T01:22:08;46;44;
70255;PMS5003;57669;52.624;-1.688;2023-01-23T01:24:33;49;48;
70255;PMS5003;57669;52.624;-1.688;2023-01-23T01:26:58;50;47;
70255;PMS5003;57669;52.624;-1.688;2023-01-23T01:29:24;51;50;
70255;PMS5003;57669;52.624;-1.688;2023-01-23T01:31:49;52;49;
70255;PMS5003;57669;52.624;-1.688;2023-01-23T01:34:15;53;52;
70255;PMS5003;57669;52.624;-1.688;2023-01-23T01:36:40;50;47;
70255;PMS5003;57669;52.624;-1.688;2023-01-23T01:39:05;60;55;
70255;PMS5003;57669;52.624;-1.688;2023-01-23T01:41:30;54;54;
70255;PMS5003;57669;52.624;-1.688;2023-01-23T01:43:56;58;56;
70255;PMS5003;57669;52.624;-1.688;2023-01-23T01:46:23;51;50;
70255;PMS5003;57669;52.624;-1.688;2023-01-23T01:48:49;53;52;
70255;PMS5003;57669;52.624;-1.688;2023-01-23T01:51:16;66;62;
70255;PMS5003;57669;52.624;-1.688;2023-01-23T01:53:38;55;52;
70255;PMS5003;57669;52.624;-1.688;2023-01-23T01:56:04;58;53;
70255;PMS5003;57669;52.624;-1.688;2023-01-23T01:58:29;52;49;
70255;PMS5003;57669;52.624;-1.688;2023-01-23T02:00:55;42;41;
70255;PMS5003;57669;52.624;-1.688;2023-01-23T02:03:21;48;48;
70255;PMS5003;57669;52.624;-1.688;2023-01-23T02:05:47;48;44;
70255;PMS5003;57669;52.624;-1.688;2023-01-23T02:08:12;51;49;
70255;PMS5003;57669;52.624;-1.688;2023-01-23T02:10:36;50;48;
70255;PMS5003;57669;52.624;-1.688;2023-01-23T02:15:28;52;49;
70255;PMS5003;57669;52.624;-1.688;2023-01-23T02:17:54;49;48;
70255;PMS5003;57669;52.624;-1.688;2023-01-23T02:20:20;48;46;
70255;PMS5003;57669;52.624;-1.688;2023-01-23T02:22:46;48;48;
70255;PMS5003;57669;52.624;-1.688;2023-01-23T02:25:11;50;48;
70255;PMS5003;57669;52.624;-1.688;2023-01-23T02:27:35;50;48;
70255;PMS5003;57669;52.624;-1.688;2023-01-23T02:30:00;51;49;
70255;PMS5003;57669;52.624;-1.688;2023-01-23T02:32:26;51;49;
70255;PMS5003;57669;52.624;-1.688;2023-01-23T02:34:51;52;50;
70255;PMS5003;57669;52.624;-1.688;2023-01-23T02:37:17;47;43;
70255;PMS5003;57669;52.624;-1.688;2023-01-23T02:39:42;51;49;
70255;PMS5003;57669;52.624;-1.688;2023-01-23T02:42:08;52;49;
70255;PMS5003;57669;52.624;-1.688;2023-01-23T02:44:33;52;51;
70255;PMS5003;57669;52.624;-1.688;2023-01-23T02:46:59;55;53;
70255;PMS5003;57669;52.624;-1.688;2023-01-23T02:49:24;55;53;
70255;PMS5003;57669;52.624;-1.688;2023-01-23T02:51:50;52;47;
70255;PMS5003;57669;52.624;-1.688;2023-01-23T02:54:16;50;48;
70255;PMS5003;57669;52.624;-1.688;2023-01-23T02:56:41;55;54;
70255;PMS5003;57669;52.624;-1.688;2023-01-23T03:01:31;48;47;
70255;PMS5003;57669;52.624;-1.688;2023-01-23T03:03:56;61;58;
70255;PMS5003;57669;52.624;-1.688;2023-01-23T03:06:22;56;55;
70255;PMS5003;57669;52.624;-1.688;2023-01-23T03:08:47;54;52;
70255;PMS5003;57669;52.624;-1.688;2023-01-23T03:11:12;55;51;
70255;PMS5003;57669;52.624;-1.688;2023-01-23T03:13:38;54;53;
70255;PMS5003;57669;52.624;-1.688;2023-01-23T03:16:04;46;44;
70255;PMS5003;57669;52.624;-1.688;2023-01-23T03:18:29;54;53;
70255;PMS5003;57669;52.624;-1.688;2023-01-23T03:20:54;55;54;
70255;PMS5003;57669;52.624;-1.688;2023-01-23T03:23:20;45;45;
70255;PMS5003;57669;52.624;-1.688;2023-01-23T03:25:45;54;49;
70255;PMS5003;57669;52.624;-1.688;2023-01-23T03:28:11;59;57;
70255;PMS5003;57669;52.624;-1.688;2023-01-23T03:30:36;45;44;
70255;PMS5003;57669;52.624;-1.688;2023-01-23T03:33:01;51;50;
70255;PMS5003;57669;52.624;-1.688;2023-01-23T03:35:27;51;46;
70255;PMS5003;57669;52.624;-1.688;2023-01-23T03:37:52;58;55;
70255;PMS5003;57669;52.624;-1.688;2023-01-23T03:40:18;52;49;
70255;PMS5003;57669;52.624;-1.688;2023-01-23T03:42:43;51;51;
70255;PMS5003;57669;52.624;-1.688;2023-01-23T03:45:08;52;51;
70255;PMS5003;57669;52.624;-1.688;2023-01-23T03:47:34;51;51;
70255;PMS5003;57669;52.624;-1.688;2023-01-23T03:49:59;56;52;
70255;PMS5003;57669;52.624;-1.688;2023-01-23T03:52:24;53;50;
70255;PMS5003;57669;52.624;-1.688;2023-01-23T03:54:50;65;63;
70255;PMS5003;57669;52.624;-1.688;2023-01-23T03:57:15;53;52;
70255;PMS5003;57669;52.624;-1.688;2023-01-23T03:59:40;52;52;
70255;PMS5003;57669;52.624;-1.688;2023-01-23T04:02:06;55;53;
70255;PMS5003;57669;52.624;-1.688;2023-01-23T04:04:31;55;54;
70255;PMS5003;57669;52.624;-1.688;2023-01-23T04:07:02;61;56;
70255;PMS5003;57669;52.624;-1.688;2023-01-23T04:09:21;58;55;
70255;PMS5003;57669;52.624;-1.688;2023-01-23T04:11:47;59;56;
70255;PMS5003;57669;52.624;-1.688;2023-01-23T04:14:12;57;53;
70255;PMS5003;57669;52.624;-1.688;2023-01-23T04:16:38;60;59;
70255;PMS5003;57669;52.624;-1.688;2023-01-23T04:19:03;57;53;
70255;PMS5003;57669;52.624;-1.688;2023-01-23T04:21:29;56;54;
70255;PMS5003;57669;52.624;-1.688;2023-01-23T04:23:54;58;57;
70255;PMS5003;57669;52.624;-1.688;2023-01-23T04:26:20;62;59;
70255;PMS5003;57669;52.624;-1.688;2023-01-23T04:28:45;59;56;
70255;PMS5003;57669;52.624;-1.688;2023-01-23T04:31:11;59;54;
70255;PMS5003;57669;52.624;-1.688;2023-01-23T04:33:37;58;54;
70255;PMS5003;57669;52.624;-1.688;2023-01-23T04:36:03;61;59;
70255;PMS5003;57669;52.624;-1.688;2023-01-23T04:38:28;49;47;
70255;PMS5003;57669;52.624;-1.688;2023-01-23T04:40:53;55;53;
70255;PMS5003;57669;52.624;-1.688;2023-01-23T04:43:19;54;50;
70255;PMS5003;57669;52.624;-1.688;2023-01-23T04:45:44;64;61;
70255;PMS5003;57669;52.624;-1.688;2023-01-23T04:48:09;65;60;
70255;PMS5003;57669;52.624;-1.688;2023-01-23T04:50:35;62;60;
70255;PMS5003;57669;52.624;-1.688;2023-01-23T04:53:00;64;58;
70255;PMS5003;57669;52.624;-1.688;2023-01-23T04:55:25;59;57;
70255;PMS5003;57669;52.624;-1.688;2023-01-23T04:57:50;63;58;
70255;PMS5003;57669;52.624;-1.688;2023-01-23T05:00:16;51;49;
70255;PMS5003;57669;52.624;-1.688;2023-01-23T05:02:42;50;48;
70255;PMS5003;57669;52.624;-1.688;2023-01-23T05:05:07;59;57;
70255;PMS5003;57669;52.624;-1.688;2023-01-23T05:07:32;55;51;
70255;PMS5003;57669;52.624;-1.688;2023-01-23T05:09:58;63;59;
70255;PMS5003;57669;52.624;-1.688;2023-01-23T05:12:23;64;59;
70255;PMS5003;57669;52.624;-1.688;2023-01-23T05:14:48;53;47;
70255;PMS5003;57669;52.624;-1.688;2023-01-23T05:17:13;57;52;
70255;PMS5003;57669;52.624;-1.688;2023-01-23T05:19:38;53;50;
70255;PMS5003;57669;52.624;-1.688;2023-01-23T05:22:04;53;47;
70255;PMS5003;57669;52.624;-1.688;2023-01-23T05:24:29;54;54;
70255;PMS5003;57669;52.624;-1.688;2023-01-23T05:26:54;50;49;
70255;PMS5003;57669;52.624;-1.688;2023-01-23T05:29:20;52;50;
70255;PMS5003;57669;52.624;-1.688;2023-01-23T05:31:45;54;52;
70255;PMS5003;57669;52.624;-1.688;2023-01-23T05:34:11;58;54;
70255;PMS5003;57669;52.624;-1.688;2023-01-23T05:36:36;45;44;
70255;PMS5003;57669;52.624;-1.688;2023-01-23T05:39:01;56;52;
70255;PMS5003;57669;52.624;-1.688;2023-01-23T05:41:27;50;49;
70255;PMS5003;57669;52.624;-1.688;2023-01-23T05:43:52;50;47;
70255;PMS5003;57669;52.624;-1.688;2023-01-23T05:46:18;45;44;
70255;PMS5003;57669;52.624;-1.688;2023-01-23T05:48:43;52;49;
70255;PMS5003;57669;52.624;-1.688;2023-01-23T05:51:09;50;48;
70255;PMS5003;57669;52.624;-1.688;2023-01-23T05:53:34;42;38;
70255;PMS5003;57669;52.624;-1.688;2023-01-23T05:56:05;46;45;
70255;PMS5003;57669;52.624;-1.688;2023-01-23T05:58:25;49;47;
70255;PMS5003;57669;52.624;-1.688;2023-01-23T06:00:50;46;46;
70255;PMS5003;57669;52.624;-1.688;2023-01-23T06:03:16;40;40;
70255;PMS5003;57669;52.624;-1.688;2023-01-23T06:05:41;48;46;
70255;PMS5003;57669;52.624;-1.688;2023-01-23T06:08:07;47;45;
70255;PMS5003;57669;52.624;-1.688;2023-01-23T06:10:32;47;45;
70255;PMS5003;57669;52.624;-1.688;2023-01-23T06:12:57;50;49;
70255;PMS5003;57669;52.624;-1.688;2023-01-23T06:15:23;41;39;
70255;PMS5003;57669;52.624;-1.688;2023-01-23T06:17:49;42;41;
70255;PMS5003;57669;52.624;-1.688;2023-01-23T06:20:14;47;47;
70255;PMS5003;57669;52.624;-1.688;2023-01-23T06:22:40;43;41;
70255;PMS5003;57669;52.624;-1.688;2023-01-23T06:25:05;47;46;
70255;PMS5003;57669;52.624;-1.688;2023-01-23T06:27:30;42;41;
70255;PMS5003;57669;52.624;-1.688;2023-01-23T06:29:55;42;42;
70255;PMS5003;57669;52.624;-1.688;2023-01-23T06:32:36;43;42;
70255;PMS5003;57669;52.624;-1.688;2023-01-23T06:34:46;51;48;
70255;PMS5003;57669;52.624;-1.688;2023-01-23T06:37:11;46;44;
70255;PMS5003;57669;52.624;-1.688;2023-01-23T06:39:37;45;42;
70255;PMS5003;57669;52.624;-1.688;2023-01-23T06:42:03;45;44;
70255;PMS5003;57669;52.624;-1.688;2023-01-23T06:44:28;53;52;
70255;PMS5003;57669;52.624;-1.688;2023-01-23T06:46:53;50;49;
70255;PMS5003;57669;52.624;-1.688;2023-01-23T06:49:18;52;47;
70255;PMS5003;57669;52.624;-1.688;2023-01-23T06:51:43;48;48;
70255;PMS5003;57669;52.624;-1.688;2023-01-23T06:54:09;45;44;
70255;PMS5003;57669;52.624;-1.688;2023-01-23T06:56:34;47;44;
70255;PMS5003;57669;52.624;-1.688;2023-01-23T06:59:00;44;42;
70255;PMS5003;57669;52.624;-1.688;2023-01-23T07:01:25;43;38;
70255;PMS5003;57669;52.624;-1.688;2023-01-23T07:03:51;50;44;
70255;PMS5003;57669;52.624;-1.688;2023-01-23T07:06:16;42;39;
70255;PMS5003;57669;52.624;-1.688;2023-01-23T07:08:42;46;44;
70255;PMS5003;57669;52.624;-1.688;2023-01-23T07:11:08;53;49;
70255;PMS5003;57669;52.624;-1.688;2023-01-23T07:13:33;59;54;
70255;PMS5003;57669;52.624;-1.688;2023-01-23T07:15:58;42;39;
70255;PMS5003;57669;52.624;-1.688;2023-01-23T07:18:24;43;42;
70255;PMS5003;57669;52.624;-1.688;2023-01-23T07:20:49;43;42;
70255;PMS5003;57669;52.624;-1.688;2023-01-23T07:23:14;44;43;
70255;PMS5003;57669;52.624;-1.688;2023-01-23T07:25:39;42;38;
70255;PMS5003;57669;52.624;-1.688;2023-01-23T07:28:05;46;44;
70255;PMS5003;57669;52.624;-1.688;2023-01-23T07:30:30;44;44;
70255;PMS5003;57669;52.624;-1.688;2023-01-23T07:32:56;44;42;
70255;PMS5003;57669;52.624;-1.688;2023-01-23T07:35:21;36;36;
70255;PMS5003;57669;52.624;-1.688;2023-01-23T07:37:47;46;44;
70255;PMS5003;57669;52.624;-1.688;2023-01-23T07:40:13;44;41;
70255;PMS5003;57669;52.624;-1.688;2023-01-23T07:42:38;40;37;
70255;PMS5003;57669;52.624;-1.688;2023-01-23T07:45:04;43;41;
70255;PMS5003;57669;52.624;-1.688;2023-01-23T07:47:29;42;39;
70255;PMS5003;57669;52.624;-1.688;2023-01-23T07:49:55;36;35;
70255;PMS5003;57669;52.624;-1.688;2023-01-23T07:52:20;41;39;
70255;PMS5003;57669;52.624;-1.688;2023-01-23T07:54:46;37;35;
70255;PMS5003;57669;52.624;-1.688;2023-01-23T07:57:11;38;37;
70255;PMS5003;57669;52.624;-1.688;2023-01-23T07:59:37;38;38;
70255;PMS5003;57669;52.624;-1.688;2023-01-23T08:02:02;38;36;
70255;PMS5003;57669;52.624;-1.688;2023-01-23T08:04:27;38;37;
70255;PMS5003;57669;52.624;-1.688;2023-01-23T08:06:53;32;32;
70255;PMS5003;57669;52.624;-1.688;2023-01-23T08:09:18;36;34;
70255;PMS5003;57669;52.624;-1.688;2023-01-23T08:11:43;38;35;
70255;PMS5003;57669;52.624;-1.688;2023-01-23T08:14:09;34;33;
70255;PMS5003;57669;52.624;-1.688;2023-01-23T08:16:34;40;38;
70255;PMS5003;57669;52.624;-1.688;2023-01-23T08:18:59;38;35;
70255;PMS5003;57669;52.624;-1.688;2023-01-23T08:21:25;43;42;
70255;PMS5003;57669;52.624;-1.688;2023-01-23T08:23:50;34;34;
70255;PMS5003;57669;52.624;-1.688;2023-01-23T08:26:16;44;41;
70255;PMS5003;57669;52.624;-1.688;2023-01-23T08:28:41;40;39;
70255;PMS5003;57669;52.624;-1.688;2023-01-23T08:31:08;37;35;
70255;PMS5003;57669;52.624;-1.688;2023-01-23T08:33:33;42;41;
70255;PMS5003;57669;52.624;-1.688;2023-01-23T08:35:58;36;35;
70255;PMS5003;57669;52.624;-1.688;2023-01-23T08:38:24;36;33;
70255;PMS5003;57669;52.624;-1.688;2023-01-23T08:40:49;36;34;
70255;PMS5003;57669;52.624;-1.688;2023-01-23T08:43:15;37;36;
70255;PMS5003;57669;52.624;-1.688;2023-01-23T08:45:40;38;36;
70255;PMS5003;57669;52.624;-1.688;2023-01-23T08:48:06;32;31;
70255;PMS5003;57669;52.624;-1.688;2023-01-23T08:50:31;36;35;
70255;PMS5003;57669;52.624;-1.688;2023-01-23T08:52:57;32;31;
70255;PMS5003;57669;52.624;-1.688;2023-01-23T08:55:22;35;35;
70255;PMS5003;57669;52.624;-1.688;2023-01-23T08:57:47;35;34;
70255;PMS5003;57669;52.624;-1.688;2023-01-23T09:00:13;36;35;
70255;PMS5003;57669;52.624;-1.688;2023-01-23T09:02:39;40;37;
70255;PMS5003;57669;52.624;-1.688;2023-01-23T09:05:04;35;35;
70255;PMS5003;57669;52.624;-1.688;2023-01-23T09:07:29;36;34;
70255;PMS5003;57669;52.624;-1.688;2023-01-23T09:09:54;34;31;
70255;PMS5003;57669;52.624;-1.688;2023-01-23T09:12:20;45;40;
70255;PMS5003;57669;52.624;-1.688;2023-01-23T09:14:46;44;44;
70255;PMS5003;57669;52.624;-1.688;2023-01-23T09:17:11;45;44;
70255;PMS5003;57669;52.624;-1.688;2023-01-23T09:19:37;38;36;
70255;PMS5003;57669;52.624;-1.688;2023-01-23T09:22:02;42;42;
70255;PMS5003;57669;52.624;-1.688;2023-01-23T09:24:27;38;36;
70255;PMS5003;57669;52.624;-1.688;2023-01-23T09:26:52;38;35;
70255;PMS5003;57669;52.624;-1.688;2023-01-23T09:29:17;41;39;
70255;PMS5003;57669;52.624;-1.688;2023-01-23T09:31:43;46;41;
70255;PMS5003;57669;52.624;-1.688;2023-01-23T09:34:08;40;37;
70255;PMS5003;57669;52.624;-1.688;2023-01-23T09:36:34;43;42;
70255;PMS5003;57669;52.624;-1.688;2023-01-23T09:38:59;42;40;
70255;PMS5003;57669;52.624;-1.688;2023-01-23T09:41:25;42;40;
70255;PMS5003;57669;52.624;-1.688;2023-01-23T09:43:51;46;44;
70255;PMS5003;57669;52.624;-1.688;2023-01-23T09:46:17;44;43;
70255;PMS5003;57669;52.624;-1.688;2023-01-23T09:48:41;43;40;
70255;PMS5003;57669;52.624;-1.688;2023-01-23T09:51:06;45;41;
70255;PMS5003;57669;52.624;-1.688;2023-01-23T09:53:33;42;41;
70255;PMS5003;57669;52.624;-1.688;2023-01-23T09:56:04;46;45;
70255;PMS5003;57669;52.624;-1.688;2023-01-23T09:58:27;42;39;
70255;PMS5003;57669;52.624;-1.688;2023-01-23T10:03:13;45;42;
70255;PMS5003;57669;52.624;-1.688;2023-01-23T10:05:39;43;39;
70255;PMS5003;57669;52.624;-1.688;2023-01-23T10:08:05;45;42;
70255;PMS5003;57669;52.624;-1.688;2023-01-23T10:12:56;33;33;
70255;PMS5003;57669;52.624;-1.688;2023-01-23T10:15:22;33;31;
70255;PMS5003;57669;52.624;-1.688;2023-01-23T10:17:47;33;31;
70255;PMS5003;57669;52.624;-1.688;2023-01-23T10:22:36;33;32;
70255;PMS5003;57669;52.624;-1.688;2023-01-23T10:25:06;31;29;
70255;PMS5003;57669;52.624;-1.688;2023-01-23T10:27:30;36;33;
70255;PMS5003;57669;52.624;-1.688;2023-01-23T10:29:55;31;30;
70255;PMS5003;57669;52.624;-1.688;2023-01-23T10:32:23;39;38;
70255;PMS5003;57669;52.624;-1.688;2023-01-23T10:34:45;34;33;
70255;PMS5003;57669;52.624;-1.688;2023-01-23T10:37:11;33;29;
70255;PMS5003;57669;52.624;-1.688;2023-01-23T10:39:38;29;28;
70255;PMS5003;57669;52.624;-1.688;2023-01-23T10:42:00;23;22;
70255;PMS5003;57669;52.624;-1.688;2023-01-23T10:44:25;31;30;
70255;PMS5003;57669;52.624;-1.688;2023-01-23T10:46:51;28;27;
70255;PMS5003;57669;52.624;-1.688;2023-01-23T10:51:43;36;33;
70255;PMS5003;57669;52.624;-1.688;2023-01-23T10:54:10;28;28;
70255;PMS5003;57669;52.624;-1.688;2023-01-23T10:56:33;36;33;
70255;PMS5003;57669;52.624;-1.688;2023-01-23T10:58:57;32;31;
70255;PMS5003;57669;52.624;-1.688;2023-01-23T11:01:25;31;28;
70255;PMS5003;57669;52.624;-1.688;2023-01-23T11:03:48;29;28;
70255;PMS5003;57669;52.624;-1.688;2023-01-23T11:06:15;33;33;
70255;PMS5003;57669;52.624;-1.688;2023-01-23T11:08:42;33;32;
70255;PMS5003;57669;52.624;-1.688;2023-01-23T11:13:30;36;36;
70255;PMS5003;57669;52.624;-1.688;2023-01-23T11:15:56;30;28;
70255;PMS5003;57669;52.624;-1.688;2023-01-23T11:18:27;43;38;
70255;PMS5003;57669;52.624;-1.688;2023-01-23T11:20:51;41;38;
70255;PMS5003;57669;52.624;-1.688;2023-01-23T11:23:14;37;36;
70255;PMS5003;57669;52.624;-1.688;2023-01-23T11:25:38;35;33;
70255;PMS5003;57669;52.624;-1.688;2023-01-23T11:28:15;38;35;
70255;PMS5003;57669;52.624;-1.688;2023-01-23T11:30:33;36;35;
70255;PMS5003;57669;52.624;-1.688;2023-01-23T11:32:56;38;36;
70255;PMS5003;57669;52.624;-1.688;2023-01-23T11:35:20;35;35;
70255;PMS5003;57669;52.624;-1.688;2023-01-23T11:37:45;29;27;
70255;PMS5003;57669;52.624;-1.688;2023-01-23T11:40:11;32;30;
70255;PMS5003;57669;52.624;-1.688;2023-01-23T11:42:36;34;31;
70255;PMS5003;57669;52.624;-1.688;2023-01-23T11:45:01;34;33;
70255;PMS5003;57669;52.624;-1.688;2023-01-23T11:47:31;33;33;
70255;PMS5003;57669;52.624;-1.688;2023-01-23T11:52:23;41;36;
70255;PMS5003;57669;52.624;-1.688;2023-01-23T11:54:49;41;39;
70255;PMS5003;57669;52.624;-1.688;2023-01-23T11:57:10;37;35;
70255;PMS5003;57669;52.624;-1.688;2023-01-23T11:59:39;34;34;
70255;PMS5003;57669;52.624;-1.688;2023-01-23T12:02:08;34;33;
70255;PMS5003;57669;52.624;-1.688;2023-01-23T12:06:55;38;36;
70255;PMS5003;57669;52.624;-1.688;2023-01-23T12:09:17;36;33;
70255;PMS5003;57669;52.624;-1.688;2023-01-23T12:11:46;34;33;
70255;PMS5003;57669;52.624;-1.688;2023-01-23T12:14:11;34;33;
70255;PMS5003;57669;52.624;-1.688;2023-01-23T12:16:36;38;36;
70255;PMS5003;57669;52.624;-1.688;2023-01-23T12:19:04;28;28;
70255;PMS5003;57669;52.624;-1.688;2023-01-23T12:21:25;37;35;
70255;PMS5003;57669;52.624;-1.688;2023-01-23T12:23:56;32;32;
70255;PMS5003;57669;52.624;-1.688;2023-01-23T12:26:15;33;31;
70255;PMS5003;57669;52.624;-1.688;2023-01-23T12:31:09;39;38;
70255;PMS5003;57669;52.624;-1.688;2023-01-23T12:33:36;35;34;
70255;PMS5003;57669;52.624;-1.688;2023-01-23T12:35:59;31;30;
70255;PMS5003;57669;52.624;-1.688;2023-01-23T12:38:23;36;33;
70255;PMS5003;57669;52.624;-1.688;2023-01-23T12:40:47;29;28;
70255;PMS5003;57669;52.624;-1.688;2023-01-23T12:43:13;37;35;
70255;PMS5003;57669;52.624;-1.688;2023-01-23T12:45:40;40;37;
70255;PMS5003;57669;52.624;-1.688;2023-01-23T12:48:05;31;29;
70255;PMS5003;57669;52.624;-1.688;2023-01-23T12:52:56;33;33;
70255;PMS5003;57669;52.624;-1.688;2023-01-23T12:55:21;30;29;
70255;PMS5003;57669;52.624;-1.688;2023-01-23T12:57:47;30;29;
70255;PMS5003;57669;52.624;-1.688;2023-01-23T13:00:15;30;28;
70255;PMS5003;57669;52.624;-1.688;2023-01-23T13:02:39;27;27;
70255;PMS5003;57669;52.624;-1.688;2023-01-23T13:05:06;30;29;
70255;PMS5003;57669;52.624;-1.688;2023-01-23T13:10:01;26;25;
70255;PMS5003;57669;52.624;-1.688;2023-01-23T13:12:21;29;28;
70255;PMS5003;57669;52.624;-1.688;2023-01-23T13:14:46;29;29;
70255;PMS5003;57669;52.624;-1.688;2023-01-23T13:19:39;30;30;
70255;PMS5003;57669;52.624;-1.688;2023-01-23T13:22:07;24;24;
70255;PMS5003;57669;52.624;-1.688;2023-01-23T13:24:30;28;28;
70255;PMS5003;57669;52.624;-1.688;2023-01-23T13:26:54;32;30;
70255;PMS5003;57669;52.624;-1.688;2023-01-23T13:31:46;32;31;
70255;PMS5003;57669;52.624;-1.688;2023-01-23T13:36:37;24;24;
70255;PMS5003;57669;52.624;-1.688;2023-01-23T13:41:28;28;27;
70255;PMS5003;57669;52.624;-1.688;2023-01-23T13:43:53;29;28;
70255;PMS5003;57669;52.624;-1.688;2023-01-23T13:46:22;30;28;
70255;PMS5003;57669;52.624;-1.688;2023-01-23T13:48:47;33;32;
70255;PMS5003;57669;52.624;-1.688;2023-01-23T13:51:14;29;28;
70255;PMS5003;57669;52.624;-1.688;2023-01-23T13:53:41;24;24;
70255;PMS5003;57669;52.624;-1.688;2023-01-23T13:56:00;28;28;
70255;PMS5003;57669;52.624;-1.688;2023-01-23T13:58:27;29;29;
70255;PMS5003;57669;52.624;-1.688;2023-01-23T14:00:53;28;28;
70255;PMS5003;57669;52.624;-1.688;2023-01-23T14:03:20;27;26;
70255;PMS5003;57669;52.624;-1.688;2023-01-23T14:05:42;32;31;
70255;PMS5003;57669;52.624;-1.688;2023-01-23T14:10:33;26;25;
70255;PMS5003;57669;52.624;-1.688;2023-01-23T14:13:00;25;24;
70255;PMS5003;57669;52.624;-1.688;2023-01-23T14:15:24;27;27;
70255;PMS5003;57669;52.624;-1.688;2023-01-23T14:17:49;26;26;
70255;PMS5003;57669;52.624;-1.688;2023-01-23T14:20:15;26;26;
70255;PMS5003;57669;52.624;-1.688;2023-01-23T14:22:41;27;26;
70255;PMS5003;57669;52.624;-1.688;2023-01-23T14:27:33;24;24;
70255;PMS5003;57669;52.624;-1.688;2023-01-23T14:29:58;25;25;
70255;PMS5003;57669;52.624;-1.688;2023-01-23T14:32:23;31;30;
70255;PMS5003;57669;52.624;-1.688;2023-01-23T14:34:48;25;25;
70255;PMS5003;57669;52.624;-1.688;2023-01-23T14:37:13;28;26;
70255;PMS5003;57669;52.624;-1.688;2023-01-23T14:39:42;32;31;
70255;PMS5003;57669;52.624;-1.688;2023-01-23T14:42:04;30;30;
70255;PMS5003;57669;52.624;-1.688;2023-01-23T14:44:31;29;26;
70255;PMS5003;57669;52.624;-1.688;2023-01-23T14:46:56;32;29;
70255;PMS5003;57669;52.624;-1.688;2023-01-23T14:49:22;34;32;
70255;PMS5003;57669;52.624;-1.688;2023-01-23T14:54:16;30;29;
70255;PMS5003;57669;52.624;-1.688;2023-01-23T14:56:38;28;27;
70255;PMS5003;57669;52.624;-1.688;2023-01-23T14:59:04;47;43;
70255;PMS5003;57669;52.624;-1.688;2023-01-23T15:01:28;38;34;
70255;PMS5003;57669;52.624;-1.688;2023-01-23T15:03:56;46;45;
70255;PMS5003;57669;52.624;-1.688;2023-01-23T15:06:20;43;42;
70255;PMS5003;57669;52.624;-1.688;2023-01-23T15:08:45;33;32;
70255;PMS5003;57669;52.624;-1.688;2023-01-23T15:11:10;41;40;
70255;PMS5003;57669;52.624;-1.688;2023-01-23T15:13:40;48;46;
70255;PMS5003;57669;52.624;-1.688;2023-01-23T15:16:02;29;28;
70255;PMS5003;57669;52.624;-1.688;2023-01-23T15:18:27;53;50;
70255;PMS5003;57669;52.624;-1.688;2023-01-23T15:20:53;41;40;
70255;PMS5003;57669;52.624;-1.688;2023-01-23T15:25:43;40;40;
70255;PMS5003;57669;52.624;-1.688;2023-01-23T15:30:36;32;31;
70255;PMS5003;57669;52.624;-1.688;2023-01-23T15:32:59;60;55;
70255;PMS5003;57669;52.624;-1.688;2023-01-23T15:35:24;40;37;
70255;PMS5003;57669;52.624;-1.688;2023-01-23T15:37:50;32;30;
70255;PMS5003;57669;52.624;-1.688;2023-01-23T15:40:16;31;31;
70255;PMS5003;57669;52.624;-1.688;2023-01-23T15:42:41;48;45;
70255;PMS5003;57669;52.624;-1.688;2023-01-23T15:45:11;44;42;
70255;PMS5003;57669;52.624;-1.688;2023-01-23T15:47:32;42;41;
70255;PMS5003;57669;52.624;-1.688;2023-01-23T15:49:57;57;55;
70255;PMS5003;57669;52.624;-1.688;2023-01-23T15:52:24;45;43;
70255;PMS5003;57669;52.624;-1.688;2023-01-23T15:54:49;40;40;
70255;PMS5003;57669;52.624;-1.688;2023-01-23T15:57:14;27;27;
70255;PMS5003;57669;52.624;-1.688;2023-01-23T15:59:40;47;44;
70255;PMS5003;57669;52.624;-1.688;2023-01-23T16:02:05;38;35;
70255;PMS5003;57669;52.624;-1.688;2023-01-23T16:04:30;31;30;
70255;PMS5003;57669;52.624;-1.688;2023-01-23T16:06:56;23;21;
70255;PMS5003;57669;52.624;-1.688;2023-01-23T16:09:22;31;28;
70255;PMS5003;57669;52.624;-1.688;2023-01-23T16:11:46;27;26;
70255;PMS5003;57669;52.624;-1.688;2023-01-23T16:14:13;35;35;
70255;PMS5003;57669;52.624;-1.688;2023-01-23T16:16:36;49;49;
70255;PMS5003;57669;52.624;-1.688;2023-01-23T16:19:02;79;73;
70255;PMS5003;57669;52.624;-1.688;2023-01-23T16:21:27;99;97;
70255;PMS5003;57669;52.624;-1.688;2023-01-23T16:23:53;59;56;
70255;PMS5003;57669;52.624;-1.688;2023-01-23T16:26:18;94;93;
70255;PMS5003;57669;52.624;-1.688;2023-01-23T16:28:44;42;41;
70255;PMS5003;57669;52.624;-1.688;2023-01-23T16:31:10;31;29;
70255;PMS5003;57669;52.624;-1.688;2023-01-23T16:33:34;37;34;
70255;PMS5003;57669;52.624;-1.688;2023-01-23T16:36:00;35;34;
70255;PMS5003;57669;52.624;-1.688;2023-01-23T16:38:26;43;41;
70255;PMS5003;57669;52.624;-1.688;2023-01-23T16:40:50;43;43;